Time;durP1;ratioP1;P1;durP2;ratioP2;P2;SDS_P1;SDS_P2;PMS_P1;PMS_P2;Temp;Humidity;BMP_temperature;BMP_pressure;BME280_temperature;BME280_humidity;BME280_pressure;Samples;Min_cycle;Max_cycle;Signal;HPM_P1;HPM_P2
2023/07/18 00:02:10;;;;;;;10.10;4.40;;;;;;;12.50;100.00;101384.95;106620;1256;72538;-69
2023/07/18 00:04:39;;;;;;;8.60;4.30;;;;;;;12.48;100.00;101386.34;106517;1260;62130;-69
2023/07/18 00:07:07;;;;;;;9.00;4.10;;;;;;;12.47;100.00;101383.85;106312;1259;61701;-69
2023/07/18 00:09:37;;;;;;;8.20;4.10;;;;;;;12.45;100.00;101389.35;106574;1257;73577;-69
2023/07/18 00:12:05;;;;;;;7.70;4.20;;;;;;;12.44;100.00;101391.73;106401;1256;71216;-69
2023/07/18 00:14:33;;;;;;;9.30;4.30;;;;;;;12.43;100.00;101388.28;106284;1259;71412;-69
2023/07/18 00:17:00;;;;;;;8.90;4.20;;;;;;;12.42;100.00;101390.87;106056;1261;61183;-69
2023/07/18 00:19:27;;;;;;;8.90;4.30;;;;;;;12.41;100.00;101390.02;106468;1256;61381;-70
2023/07/18 00:21:54;;;;;;;9.00;4.10;;;;;;;12.40;100.00;101391.72;106453;1257;73280;-69
2023/07/18 00:24:21;;;;;;;9.30;4.30;;;;;;;12.39;100.00;101386.67;106363;1257;69974;-69
2023/07/18 00:26:48;;;;;;;8.40;4.30;;;;;;;12.40;100.00;101386.36;106161;1255;70860;-68
2023/07/18 00:29:14;;;;;;;8.50;4.10;;;;;;;12.41;100.00;101383.09;106027;1262;61306;-68
2023/07/18 00:31:41;;;;;;;11.80;4.40;;;;;;;12.42;100.00;101385.05;106301;1259;61297;-69
2023/07/18 00:34:08;;;;;;;10.70;4.20;;;;;;;12.42;100.00;101385.75;106371;1259;73398;-70
2023/07/18 00:36:35;;;;;;;7.60;4.00;;;;;;;12.41;100.00;101378.95;106614;1260;72155;-69
2023/07/18 00:39:03;;;;;;;11.20;4.00;;;;;;;12.41;100.00;101381.77;106227;1258;71913;-69
2023/07/18 00:41:30;;;;;;;11.30;4.60;;;;;;;12.41;100.00;101381.49;106331;1257;61287;-69
2023/07/18 00:43:56;;;;;;;7.70;4.30;;;;;;;12.39;100.00;101380.24;106180;1256;62113;-69
2023/07/18 00:46:24;;;;;;;11.50;4.40;;;;;;;12.39;100.00;101379.58;106259;1256;73488;-70
2023/07/18 00:48:51;;;;;;;8.30;4.00;;;;;;;12.37;100.00;101376.09;106224;1260;71411;-69
2023/07/18 00:51:18;;;;;;;9.20;4.30;;;;;;;12.36;100.00;101375.50;106145;1259;72780;-69
2023/07/18 00:53:46;;;;;;;10.10;4.80;;;;;;;12.33;100.00;101373.64;106596;1256;61246;-70
2023/07/18 00:56:13;;;;;;;8.40;4.40;;;;;;;12.31;100.00;101368.20;106607;1257;61256;-70
2023/07/18 00:58:40;;;;;;;10.10;4.60;;;;;;;12.30;100.00;101365.33;106277;1256;73777;-70
2023/07/18 01:01:07;;;;;;;8.90;4.40;;;;;;;12.28;100.00;101366.42;106239;1259;69925;-70
2023/07/18 01:03:34;;;;;;;9.50;4.40;;;;;;;12.26;100.00;101369.30;106329;1256;72687;-71
2023/07/18 01:06:01;;;;;;;12.80;4.50;;;;;;;12.23;100.00;101367.45;106322;1260;61334;-69
2023/07/18 01:08:28;;;;;;;8.60;4.40;;;;;;;12.21;100.00;101364.98;106700;1259;61171;-69
2023/07/18 01:10:55;;;;;;;10.90;4.80;;;;;;;12.20;100.00;101366.92;106164;1256;73609;-69
2023/07/18 01:13:22;;;;;;;10.30;4.60;;;;;;;12.18;100.00;101368.15;106463;1262;70131;-69
2023/07/18 01:15:48;;;;;;;10.70;4.60;;;;;;;12.16;100.00;101365.92;106269;1262;72897;-70
2023/07/18 01:18:15;;;;;;;10.10;4.60;;;;;;;12.15;100.00;101370.68;106407;1257;61179;-69
2023/07/18 01:20:45;;;;;;;10.10;4.40;;;;;;;12.13;100.00;101370.02;106255;1258;61284;-69
2023/07/18 01:23:12;;;;;;;8.30;4.30;;;;;;;12.11;100.00;101365.80;106246;1263;73538;-69
2023/07/18 01:25:40;;;;;;;10.00;4.70;;;;;;;12.10;100.00;101361.69;106311;1260;70379;-71
2023/07/18 01:28:08;;;;;;;11.90;4.50;;;;;;;12.08;100.00;101357.03;106475;1257;70558;-69
2023/07/18 01:30:35;;;;;;;9.40;4.50;;;;;;;12.08;100.00;101359.80;106422;1257;61997;-70
2023/07/18 01:33:02;;;;;;;11.30;4.40;;;;;;;12.07;100.00;101356.17;106225;1260;61174;-69
2023/07/18 01:35:29;;;;;;;10.90;4.50;;;;;;;12.05;100.00;101355.14;106241;1260;73538;-70
2023/07/18 01:37:57;;;;;;;9.90;4.30;;;;;;;12.02;100.00;101357.00;105645;1258;976185;-69
2023/07/18 01:40:24;;;;;;;8.00;4.10;;;;;;;12.00;100.00;101355.48;106459;1256;72781;-69
2023/07/18 01:42:53;;;;;;;11.10;4.60;;;;;;;11.98;100.00;101351.05;106266;1257;61273;-69
2023/07/18 01:45:22;;;;;;;11.70;5.00;;;;;;;11.96;100.00;101342.91;106431;1257;61230;-70
2023/07/18 01:47:50;;;;;;;10.40;4.50;;;;;;;11.96;100.00;101340.68;106585;1256;72372;-71
2023/07/18 01:50:18;;;;;;;10.40;4.60;;;;;;;11.94;100.00;101344.78;106344;1257;71264;-69
2023/07/18 01:52:46;;;;;;;10.90;4.90;;;;;;;11.92;100.00;101347.11;106128;1262;70724;-69
2023/07/18 01:55:14;;;;;;;12.40;5.00;;;;;;;11.90;100.00;101350.04;106235;1260;62067;-69
2023/07/18 01:57:48;;;;;;;11.60;4.90;;;;;;;11.87;100.00;101349.75;106209;1261;61671;-69
2023/07/18 02:00:20;;;;;;;9.40;4.70;;;;;;;11.86;100.00;101350.40;106268;1258;73498;-69
2023/07/18 02:02:51;;;;;;;15.40;5.20;;;;;;;11.84;100.00;101346.31;106465;1257;70048;-68
2023/07/18 02:05:20;;;;;;;11.40;4.90;;;;;;;11.83;100.00;101346.08;106159;1260;71806;-69
2023/07/18 02:07:47;;;;;;;9.50;5.00;;;;;;;11.82;100.00;101347.25;106362;1256;62123;-69
2023/07/18 02:10:16;;;;;;;11.30;4.80;;;;;;;11.82;100.00;101345.69;105912;1257;61350;-68
2023/07/18 02:12:43;;;;;;;12.80;5.40;;;;;;;11.80;100.00;101348.91;106176;1262;73482;-69
2023/07/18 02:15:13;;;;;;;11.80;4.90;;;;;;;11.78;100.00;101348.02;106495;1257;71123;-71
2023/07/18 02:17:40;;;;;;;11.60;5.30;;;;;;;11.77;100.00;101348.02;106364;1258;71465;-69
2023/07/18 02:20:09;;;;;;;10.50;5.00;;;;;;;11.75;100.00;101350.38;106265;1260;61253;-69
2023/07/18 02:22:36;;;;;;;11.40;4.60;;;;;;;11.73;100.00;101350.58;106308;1256;61234;-69
2023/07/18 02:25:03;;;;;;;11.40;5.20;;;;;;;11.71;100.00;101349.33;106213;1261;73477;-70
2023/07/18 02:27:34;;;;;;;10.80;5.10;;;;;;;11.70;100.00;101354.29;106253;1261;69987;-69
2023/07/18 02:30:02;;;;;;;11.80;6.10;;;;;;;11.70;100.00;101356.61;106304;1258;72915;-69
2023/07/18 02:32:32;;;;;;;11.30;5.40;;;;;;;11.68;100.00;101354.61;106169;1257;61362;-69
2023/07/18 02:34:58;;;;;;;12.40;5.40;;;;;;;11.68;100.00;101357.08;106266;1257;62160;-70
2023/07/18 02:37:26;;;;;;;11.80;5.70;;;;;;;11.69;100.00;101353.86;106227;1258;75472;-69
2023/07/18 02:39:53;;;;;;;12.60;5.60;;;;;;;11.70;100.00;101358.15;106770;1258;71113;-70
2023/07/18 02:42:20;;;;;;;11.90;5.70;;;;;;;11.71;100.00;101359.11;106006;1257;70477;-70
2023/07/18 02:44:48;;;;;;;11.20;5.80;;;;;;;11.73;100.00;101366.69;105918;1257;62013;-69
2023/07/18 02:47:15;;;;;;;12.00;5.60;;;;;;;11.75;100.00;101367.92;106526;1256;60430;-69
2023/07/18 02:49:41;;;;;;;13.10;6.20;;;;;;;11.75;100.00;101370.19;106371;1260;74709;-69
2023/07/18 02:52:08;;;;;;;12.70;6.00;;;;;;;11.76;100.00;101370.05;106737;1257;71165;-69
2023/07/18 02:54:35;;;;;;;12.60;6.30;;;;;;;11.78;100.00;101373.41;106265;1256;72651;-70
2023/07/18 02:57:02;;;;;;;13.50;6.00;;;;;;;11.78;100.00;101373.34;106538;1257;61340;-70
2023/07/18 02:59:28;;;;;;;14.50;6.50;;;;;;;11.80;100.00;101380.32;106080;1257;61803;-69
2023/07/18 03:01:57;;;;;;;15.30;6.10;;;;;;;11.81;100.00;101382.95;106568;1257;61279;-70
2023/07/18 03:04:26;;;;;;;13.60;7.30;;;;;;;11.83;100.00;101386.25;106170;1262;71219;-68
2023/07/18 03:06:53;;;;;;;13.40;6.90;;;;;;;11.88;100.00;101391.02;106272;1257;71744;-73
2023/07/18 03:09:21;;;;;;;12.40;6.40;;;;;;;11.91;100.00;101388.75;106274;1256;62205;-69
2023/07/18 03:11:51;;;;;;;18.80;6.70;;;;;;;11.95;100.00;101391.60;106713;1257;62112;-69
2023/07/18 03:14:19;;;;;;;14.70;6.50;;;;;;;12.00;100.00;101395.20;106177;1260;74809;-69
2023/07/18 03:16:45;;;;;;;14.00;6.40;;;;;;;12.05;100.00;101396.98;106249;1263;69739;-68
2023/07/18 03:19:14;;;;;;;11.30;6.70;;;;;;;12.08;100.00;101398.42;106411;1257;71225;-69
2023/07/18 03:21:40;;;;;;;17.40;6.20;;;;;;;12.11;100.00;101395.89;106091;1260;62498;-69
2023/07/18 03:24:07;;;;;;;12.40;6.60;;;;;;;12.14;100.00;101394.41;106227;1257;61241;-69
2023/07/18 03:26:36;;;;;;;13.30;6.40;;;;;;;12.16;100.00;101395.52;106321;1260;74815;-69
2023/07/18 03:29:07;;;;;;;15.10;6.70;;;;;;;12.18;100.00;101392.62;106922;1257;70522;-69
2023/07/18 03:31:34;;;;;;;13.30;6.30;;;;;;;12.20;100.00;101384.77;106383;1257;70715;-69
2023/07/18 03:34:04;;;;;;;12.40;5.90;;;;;;;12.22;100.00;101387.20;106400;1257;62457;-70
2023/07/18 03:36:32;;;;;;;11.60;6.00;;;;;;;12.24;100.00;101391.12;106217;1260;61274;-69
2023/07/18 03:38:59;;;;;;;14.90;6.30;;;;;;;12.26;100.00;101387.91;106605;1257;73181;-70
2023/07/18 03:41:25;;;;;;;13.80;6.00;;;;;;;12.28;100.00;101383.33;106194;1258;71864;-69
2023/07/18 03:43:52;;;;;;;11.90;5.70;;;;;;;12.29;100.00;101379.57;106559;1258;71493;-71
2023/07/18 03:46:21;;;;;;;12.60;6.20;;;;;;;12.31;100.00;101382.75;108200;1257;62098;-71
2023/07/18 03:48:48;;;;;;;12.30;5.60;;;;;;;12.34;100.00;101381.68;108981;1256;59259;-70
2023/07/18 03:51:15;;;;;;;14.80;6.40;;;;;;;12.38;100.00;101382.02;107596;1257;74996;-69
2023/07/18 03:53:43;;;;;;;12.50;5.70;;;;;;;12.42;100.00;101382.59;106291;1257;70022;-70
2023/07/18 03:56:11;;;;;;;12.30;5.90;;;;;;;12.46;100.00;101381.62;107697;1257;70589;-69
2023/07/18 03:58:39;;;;;;;10.50;5.20;;;;;;;12.54;100.00;101385.86;106259;1260;61409;-69
2023/07/18 04:01:07;;;;;;;11.70;5.50;;;;;;;12.59;100.00;101381.15;106508;1256;61254;-68
2023/07/18 04:03:35;;;;;;;11.30;5.00;;;;;;;12.64;100.00;101379.55;106435;1258;73526;-69
2023/07/18 04:06:02;;;;;;;12.20;5.10;;;;;;;12.69;100.00;101377.83;106570;1257;69670;-69
2023/07/18 04:08:29;;;;;;;14.30;5.50;;;;;;;12.74;100.00;101378.86;106230;1258;71823;-68
2023/07/18 04:10:58;;;;;;;11.40;5.10;;;;;;;12.81;100.00;101380.77;106446;1257;62026;-70
2023/07/18 04:13:25;;;;;;;9.80;4.90;;;;;;;12.84;100.00;101382.29;106298;1257;61246;-68
2023/07/18 04:15:55;;;;;;;11.70;5.40;;;;;;;12.88;100.00;101380.52;107926;1257;75459;-69
2023/07/18 04:18:22;;;;;;;11.00;5.20;;;;;;;12.90;100.00;101377.80;106475;1258;69952;-68
2023/07/18 04:20:49;;;;;;;10.20;4.70;;;;;;;12.91;100.00;101379.94;106512;1257;70269;-70
2023/07/18 04:23:17;;;;;;;11.20;5.10;;;;;;;12.92;100.00;101381.22;106304;1263;61273;-70
2023/07/18 04:25:59;;;;;;;12.30;5.20;;;;;;;12.94;100.00;101378.33;106505;1259;61174;-70
2023/07/18 04:28:27;;;;;;;11.20;5.10;;;;;;;12.98;100.00;101372.11;106127;1258;74717;-69
2023/07/18 04:30:54;;;;;;;11.90;4.90;;;;;;;13.00;100.00;101376.92;106514;1256;71208;-70
2023/07/18 04:33:21;;;;;;;10.10;5.00;;;;;;;13.02;100.00;101379.41;106340;1258;72997;-68
2023/07/18 04:35:47;;;;;;;9.40;4.60;;;;;;;13.04;100.00;101375.74;106327;1258;61387;-69
2023/07/18 04:38:14;;;;;;;13.50;5.50;;;;;;;13.08;100.00;101372.03;106386;1258;61129;-69
2023/07/18 04:40:41;;;;;;;11.40;5.00;;;;;;;13.13;100.00;101369.73;106448;1258;73511;-70
2023/07/18 04:43:08;;;;;;;10.40;4.70;;;;;;;13.18;100.00;101372.98;106304;1258;71230;-68
2023/07/18 04:45:45;;;;;;;12.20;5.10;;;;;;;13.22;100.00;101367.59;106621;1256;72710;-69
2023/07/18 04:48:14;;;;;;;9.70;4.90;;;;;;;13.27;100.00;101369.83;106317;1257;61646;-69
2023/07/18 04:50:41;;;;;;;10.10;4.60;;;;;;;13.32;100.00;101364.85;106368;1257;61682;-70
2023/07/18 04:53:09;;;;;;;11.50;4.70;;;;;;;13.36;100.00;101366.13;106143;1258;73314;-69
2023/07/18 04:55:36;;;;;;;9.90;4.50;;;;;;;13.42;100.00;101365.06;106372;1257;69962;-69
2023/07/18 04:58:04;;;;;;;9.70;4.80;;;;;;;13.48;100.00;101362.65;106835;1257;71617;-70
2023/07/18 05:00:31;;;;;;;8.80;4.30;;;;;;;13.54;100.00;101364.08;106258;1259;61168;-71
2023/07/18 05:02:59;;;;;;;11.90;4.50;;;;;;;13.62;100.00;101370.29;106315;1258;61385;-71
2023/07/18 05:05:27;;;;;;;10.50;4.30;;;;;;;13.69;100.00;101364.13;106371;1256;74874;-69
2023/07/18 05:07:54;;;;;;;11.00;4.50;;;;;;;13.77;100.00;101359.39;106268;1260;69371;-70
2023/07/18 05:10:22;;;;;;;11.30;4.50;;;;;;;13.84;99.99;101356.63;106166;1257;71465;-70
2023/07/18 05:12:53;;;;;;;9.80;4.40;;;;;;;13.91;99.94;101357.27;106314;1257;62376;-73
2023/07/18 05:15:20;;;;;;;10.00;4.30;;;;;;;14.02;99.96;101359.69;106372;1257;61260;-70
2023/07/18 05:17:47;;;;;;;9.40;4.50;;;;;;;14.13;99.87;101363.10;106428;1256;75053;-70
2023/07/18 05:20:15;;;;;;;8.60;4.30;;;;;;;14.20;99.40;101367.04;106461;1257;72641;-70
2023/07/18 05:22:44;;;;;;;9.20;4.50;;;;;;;14.28;99.30;101363.45;106623;1257;71334;-71
2023/07/18 05:25:15;;;;;;;10.10;4.10;;;;;;;14.37;99.01;101365.80;106290;1256;61449;-70
2023/07/18 05:27:42;;;;;;;9.80;4.30;;;;;;;14.45;98.39;101368.87;106419;1256;61162;-71
2023/07/18 05:30:17;;;;;;;8.10;4.20;;;;;;;14.54;98.36;101368.65;106590;1257;74696;-71
2023/07/18 05:32:45;;;;;;;9.90;4.40;;;;;;;14.62;97.80;101372.02;106684;1257;70684;-70
2023/07/18 05:35:15;;;;;;;9.90;4.50;;;;;;;14.70;97.78;101370.59;106764;1257;73270;-71
2023/07/18 05:37:43;;;;;;;7.30;4.20;;;;;;;14.72;96.64;101372.77;106376;1257;62006;-71
2023/07/18 05:40:11;;;;;;;8.80;4.10;;;;;;;14.71;96.25;101375.42;106686;1256;61236;-72
2023/07/18 05:42:40;;;;;;;7.80;4.10;;;;;;;14.70;96.04;101377.52;106253;1257;74723;-72
2023/07/18 05:45:08;;;;;;;12.00;4.50;;;;;;;14.64;95.41;101380.60;106406;1257;70966;-71
2023/07/18 05:47:37;;;;;;;7.00;3.90;;;;;;;14.63;95.53;101381.55;106313;1256;72861;-72
2023/07/18 05:50:06;;;;;;;9.70;4.00;;;;;;;14.64;95.71;101381.66;106295;1258;61347;-71
2023/07/18 05:52:33;;;;;;;9.00;4.30;;;;;;;14.66;95.72;101383.20;106604;1256;61746;-71
2023/07/18 05:55:00;;;;;;;8.20;3.90;;;;;;;14.73;96.03;101384.23;106410;1256;74496;-72
2023/07/18 05:57:28;;;;;;;8.00;4.00;;;;;;;14.79;95.74;101384.52;106012;1257;69853;-71
2023/07/18 05:59:54;;;;;;;10.40;4.20;;;;;;;14.83;95.04;101388.11;106589;1256;71726;-71
2023/07/18 06:02:21;;;;;;;7.90;4.00;;;;;;;14.88;94.88;101388.70;106789;1258;62161;-72
2023/07/18 06:04:53;;;;;;;7.40;3.60;;;;;;;14.94;94.38;101388.08;107921;1257;61320;-73
2023/07/18 06:07:21;;;;;;;9.30;4.00;;;;;;;15.02;94.33;101383.16;107530;1256;75117;-72
2023/07/18 06:09:52;;;;;;;8.10;3.90;;;;;;;15.11;93.56;101383.75;106920;1262;69981;-72
2023/07/18 06:12:19;;;;;;;8.20;4.00;;;;;;;15.17;93.05;101381.55;106852;1256;71499;-72
2023/07/18 06:14:46;;;;;;;10.90;4.10;;;;;;;15.27;92.76;101384.73;106765;1256;61666;-72
2023/07/18 06:17:13;;;;;;;10.10;4.00;;;;;;;15.38;92.55;101387.70;107005;1260;61125;-73
2023/07/18 06:19:40;;;;;;;8.00;3.80;;;;;;;15.51;92.67;101387.89;106685;1257;73461;-72
2023/07/18 06:22:09;;;;;;;9.20;3.90;;;;;;;15.63;92.31;101386.20;107191;1256;70490;-72
2023/07/18 06:24:36;;;;;;;8.70;3.70;;;;;;;15.75;91.88;101385.52;107061;1257;71114;-72
2023/07/18 06:27:02;;;;;;;7.90;3.70;;;;;;;15.85;91.23;101380.96;107437;1256;62274;-73
2023/07/18 06:29:30;;;;;;;7.00;3.60;;;;;;;15.95;90.56;101384.27;106862;1255;62050;-72
2023/07/18 06:31:57;;;;;;;7.40;3.70;;;;;;;16.04;90.03;101377.97;107161;1257;73438;-72
2023/07/18 06:34:24;;;;;;;8.60;3.50;;;;;;;16.14;89.87;101385.80;106979;1256;69641;-72
2023/07/18 06:36:51;;;;;;;8.20;3.60;;;;;;;16.24;89.25;101385.40;107057;1256;71581;-72
2023/07/18 06:39:18;;;;;;;7.10;3.50;;;;;;;16.31;88.62;101382.31;107116;1256;61292;-72
2023/07/18 06:41:45;;;;;;;8.60;3.50;;;;;;;16.41;88.27;101376.78;106999;1256;61257;-71
2023/07/18 06:44:14;;;;;;;8.10;3.30;;;;;;;16.53;87.92;101376.94;106994;1257;74670;-73
2023/07/18 06:46:41;;;;;;;9.40;3.50;;;;;;;16.61;86.64;101379.70;108893;1256;69869;-73
2023/07/18 06:49:10;;;;;;;8.80;3.10;;;;;;;16.66;85.66;101380.14;108019;1256;72687;-72
2023/07/18 06:51:37;;;;;;;9.40;3.10;;;;;;;16.77;85.32;101378.41;107917;1256;62011;-72
2023/07/18 06:54:04;;;;;;;9.80;3.80;;;;;;;16.84;84.66;101383.05;107612;1261;60239;-72
2023/07/18 06:56:31;;;;;;;8.90;3.30;;;;;;;16.95;85.02;101380.86;108087;1257;73140;-72
2023/07/18 06:58:58;;;;;;;8.10;3.30;;;;;;;17.06;84.46;101372.13;107243;1256;70074;-72
2023/07/18 07:01:25;;;;;;;6.80;3.10;;;;;;;17.17;84.22;101367.50;107226;1257;72744;-73
2023/07/18 07:03:52;;;;;;;10.90;3.40;;;;;;;17.26;83.55;101368.27;107321;1258;62906;-71
2023/07/18 07:06:20;;;;;;;7.80;2.80;;;;;;;17.38;83.33;101368.59;107216;1256;61276;-72
2023/07/18 07:08:47;;;;;;;6.70;2.90;;;;;;;17.48;81.96;101369.80;107089;1256;73517;-71
2023/07/18 07:11:14;;;;;;;7.90;2.80;;;;;;;17.56;80.54;101365.44;106796;1257;70997;-70
2023/07/18 07:13:40;;;;;;;8.40;3.70;;;;;;;17.63;80.16;101370.55;106786;1256;71529;-72
2023/07/18 07:16:07;;;;;;;7.50;3.00;;;;;;;17.71;79.67;101368.20;106711;1256;62152;-71
2023/07/18 07:18:34;;;;;;;10.30;2.80;;;;;;;17.82;80.05;101368.56;106892;1257;59266;-70
2023/07/18 07:21:01;;;;;;;6.90;2.40;;;;;;;17.92;79.41;101366.77;108698;1256;75829;-71
2023/07/18 07:23:28;;;;;;;5.30;2.30;;;;;;;18.01;78.49;101366.86;109017;1256;71162;-71
2023/07/18 07:25:55;;;;;;;7.90;2.60;;;;;;;18.09;78.65;101364.72;108214;1255;71514;-70
2023/07/18 07:28:24;;;;;;;7.20;2.20;;;;;;;18.16;77.65;101359.67;106972;1256;61737;-71
2023/07/18 07:30:51;;;;;;;6.00;2.30;;;;;;;18.22;76.34;101364.23;106668;1257;61215;-72
2023/07/18 07:33:19;;;;;;;4.90;1.80;;;;;;;18.27;74.80;101360.85;106993;1255;74365;-72
2023/07/18 07:35:46;;;;;;;5.50;1.90;;;;;;;18.36;74.65;101359.46;106755;1257;70901;-72
2023/07/18 07:38:14;;;;;;;7.50;2.60;;;;;;;18.45;73.63;101361.27;106827;1256;72722;-72
2023/07/18 07:40:41;;;;;;;9.10;3.20;;;;;;;18.51;73.31;101356.08;106780;1256;61385;-73
2023/07/18 07:43:08;;;;;;;9.10;2.90;;;;;;;18.60;73.55;101354.48;107275;1256;60371;-72
2023/07/18 07:45:35;;;;;;;8.10;3.00;;;;;;;18.72;72.94;101354.97;106570;1256;73444;-72
2023/07/18 07:48:01;;;;;;;9.60;2.90;;;;;;;18.82;72.22;101358.02;106745;1255;70629;-73
2023/07/18 07:50:28;;;;;;;11.40;3.20;;;;;;;18.86;71.36;101348.15;106875;1258;71177;-73
2023/07/18 07:52:55;;;;;;;14.00;5.10;;;;;;;18.93;71.92;101351.11;107230;1255;61257;-73
2023/07/18 07:55:22;;;;;;;8.80;2.60;;;;;;;19.00;69.79;101351.03;109050;1256;59083;-72
2023/07/18 07:57:49;;;;;;;7.00;2.90;;;;;;;19.04;70.13;101342.75;109020;1256;75803;-74
2023/07/18 08:00:16;;;;;;;5.30;1.90;;;;;;;19.12;69.57;101342.48;108347;1256;71153;-72
2023/07/18 08:02:43;;;;;;;4.60;1.90;;;;;;;19.22;68.05;101347.52;107477;1256;72555;-72
2023/07/18 08:05:10;;;;;;;5.30;1.80;;;;;;;19.30;67.30;101341.80;107792;1256;61234;-72
2023/07/18 08:07:39;;;;;;;5.10;1.90;;;;;;;19.36;67.47;101337.34;107605;1256;61562;-72
2023/07/18 08:10:07;;;;;;;5.40;1.80;;;;;;;19.46;67.74;101329.42;107636;1257;73477;-73
2023/07/18 08:12:33;;;;;;;7.10;1.90;;;;;;;19.57;68.21;101329.27;106889;1256;71558;-72
2023/07/18 08:15:00;;;;;;;6.10;1.50;;;;;;;19.69;67.75;101331.22;106728;1256;71600;-72
2023/07/18 08:17:27;;;;;;;3.90;1.40;;;;;;;19.81;66.93;101331.91;107227;1256;61253;-71
2023/07/18 08:19:55;;;;;;;5.80;2.00;;;;;;;19.85;65.53;101324.27;106710;1259;61161;-72
2023/07/18 08:22:22;;;;;;;4.70;1.80;;;;;;;19.96;65.64;101325.23;106985;1256;73486;-72
2023/07/18 08:24:49;;;;;;;3.80;1.60;;;;;;;20.05;65.54;101323.58;106674;1257;71203;-73
2023/07/18 08:27:15;;;;;;;5.80;1.50;;;;;;;20.15;65.23;101320.66;107164;1255;71461;-72
2023/07/18 08:29:43;;;;;;;6.60;2.00;;;;;;;20.24;64.03;101323.13;106566;1256;61369;-72
2023/07/18 08:32:10;;;;;;;4.10;1.30;;;;;;;20.33;63.23;101325.55;106827;1258;61350;-73
2023/07/18 08:34:37;;;;;;;6.00;1.80;;;;;;;20.42;62.50;101315.97;107191;1256;72784;-72
2023/07/18 08:37:08;;;;;;;7.60;1.60;;;;;;;20.47;63.11;101314.58;106766;1256;69958;-72
2023/07/18 08:39:36;;;;;;;4.20;1.50;;;;;;;20.58;61.74;101312.76;106623;1256;71485;-71
2023/07/18 08:42:06;;;;;;;5.30;1.80;;;;;;;20.66;60.58;101316.98;106904;1256;61654;-72
2023/07/18 08:44:34;;;;;;;5.00;1.60;;;;;;;20.80;60.64;101310.91;106743;1257;62782;-72
2023/07/18 08:47:05;;;;;;;4.40;1.30;;;;;;;20.96;60.56;101302.90;106991;1256;73406;-72
2023/07/18 08:49:35;;;;;;;2.70;1.00;;;;;;;21.15;60.41;101294.27;106769;1260;70424;-70
2023/07/18 08:52:04;;;;;;;2.70;1.00;;;;;;;21.23;58.43;101292.13;107116;1256;72754;-72
2023/07/18 08:54:34;;;;;;;4.80;1.30;;;;;;;21.32;57.46;101293.04;106802;1256;61220;-73
2023/07/18 08:57:02;;;;;;;5.20;1.20;;;;;;;21.39;57.05;101293.87;106798;1257;61310;-72
2023/07/18 08:59:29;;;;;;;6.60;1.70;;;;;;;21.46;55.76;101292.70;106648;1256;73640;-72
2023/07/18 09:01:56;;;;;;;4.00;1.70;;;;;;;21.44;55.90;101287.74;106755;1256;71160;-72
2023/07/18 09:04:23;;;;;;;3.50;1.30;;;;;;;21.44;55.61;101293.36;106825;1256;71162;-72
2023/07/18 09:06:56;;;;;;;3.00;0.90;;;;;;;21.51;55.52;101285.89;106687;1256;61283;-72
2023/07/18 09:09:23;;;;;;;3.40;1.00;;;;;;;21.58;55.07;101286.31;106626;1257;61818;-71
2023/07/18 09:11:59;;;;;;;4.10;1.60;;;;;;;21.60;55.03;101283.60;106756;1258;75242;-72
2023/07/18 09:14:34;;;;;;;2.80;1.20;;;;;;;21.50;54.95;101282.45;106742;1256;71181;-73
2023/07/18 09:17:03;;;;;;;4.60;1.30;;;;;;;21.50;55.08;101280.55;106559;1256;72631;-72
2023/07/18 09:19:45;;;;;;;3.80;1.20;;;;;;;21.70;55.61;101277.73;106797;1255;61253;-72
2023/07/18 09:22:14;;;;;;;3.40;1.10;;;;;;;21.84;54.39;101275.95;106907;1255;61192;-72
2023/07/18 09:24:42;;;;;;;5.90;1.20;;;;;;;22.00;54.49;101275.80;106797;1256;74768;-72
2023/07/18 09:27:15;;;;;;;3.50;1.10;;;;;;;22.07;53.48;101268.06;107029;1256;70554;-73
2023/07/18 09:29:46;;;;;;;5.40;1.20;;;;;;;22.19;53.22;101262.77;107212;1256;72631;-72
2023/07/18 09:32:20;;;;;;;4.50;1.10;;;;;;;22.38;53.82;101259.85;107129;1255;62824;-73
2023/07/18 09:34:55;;;;;;;4.30;1.30;;;;;;;22.53;52.62;101262.34;106594;1256;61996;-72
2023/07/18 09:37:22;;;;;;;3.00;1.20;;;;;;;22.64;52.47;101254.73;107232;1256;73148;-73
2023/07/18 09:39:50;;;;;;;5.60;1.10;;;;;;;22.55;50.73;101258.80;106913;1257;68773;-74
2023/07/18 09:42:17;;;;;;;3.40;1.10;;;;;;;22.39;50.72;101255.02;108097;1256;72657;-72
2023/07/18 09:44:51;;;;;;;3.00;1.00;;;;;;;22.30;50.60;101258.86;106804;1255;61193;-72
2023/07/18 09:47:19;;;;;;;2.80;0.90;;;;;;;22.26;50.25;101252.61;106754;1256;61170;-72
2023/07/18 09:49:47;;;;;;;2.70;1.00;;;;;;;22.23;49.65;101250.10;107169;1259;73561;-72
2023/07/18 09:52:15;;;;;;;3.10;0.80;;;;;;;22.23;50.26;101244.28;106697;1256;70364;-72
2023/07/18 09:54:43;;;;;;;2.80;0.90;;;;;;;22.37;48.94;101248.56;106740;1256;71256;-71
2023/07/18 09:57:12;;;;;;;3.80;1.10;;;;;;;22.47;48.72;101253.02;107324;1256;61297;-72
2023/07/18 09:59:40;;;;;;;3.10;0.80;;;;;;;22.41;48.87;101249.81;106783;1257;61268;-72
2023/07/18 10:02:10;;;;;;;5.00;1.20;;;;;;;22.41;49.43;101242.69;106993;1256;72458;-71
2023/07/18 10:04:38;;;;;;;3.40;0.90;;;;;;;22.49;47.33;101240.23;106859;1256;69740;-73
2023/07/18 10:07:08;;;;;;;2.60;0.80;;;;;;;22.38;47.27;101236.20;107272;1256;71462;-72
2023/07/18 10:09:36;;;;;;;2.90;0.80;;;;;;;22.20;46.15;101235.65;106759;1256;60212;-72
2023/07/18 10:12:03;;;;;;;3.40;0.80;;;;;;;22.05;46.98;101230.48;106943;1259;61353;-72
2023/07/18 10:14:29;;;;;;;7.40;1.30;;;;;;;22.06;47.19;101227.25;106750;1257;73532;-72
2023/07/18 10:17:05;;;;;;;3.00;1.00;;;;;;;22.26;48.21;101226.05;106859;1256;71333;-72
2023/07/18 10:20:01;;;;;;;3.70;0.90;;;;;;;22.54;48.36;101219.46;106850;1256;74388;-73
2023/07/18 10:22:30;;;;;;;4.20;1.10;;;;;;;22.84;47.73;101215.79;106724;1256;61273;-72
2023/07/18 10:25:06;;;;;;;3.30;1.00;;;;;;;23.10;47.23;101211.00;106702;1256;61728;-72
2023/07/18 10:27:37;;;;;;;3.20;0.90;;;;;;;23.23;45.45;101219.81;106966;1256;72445;-72
2023/07/18 10:30:15;;;;;;;4.30;0.90;;;;;;;23.30;45.25;101214.41;106793;1256;69958;-72
2023/07/18 10:32:50;;;;;;;3.60;0.70;;;;;;;23.52;45.60;101217.59;106796;1256;71954;-73
2023/07/18 10:35:22;;;;;;;3.60;0.90;;;;;;;23.66;44.62;101215.56;106748;1256;61355;-73
2023/07/18 10:37:54;;;;;;;2.30;0.70;;;;;;;23.82;44.87;101209.69;106772;1256;61099;-74
2023/07/18 10:40:36;;;;;;;3.50;0.90;;;;;;;24.05;44.97;101204.46;107043;1256;73117;-72
2023/07/18 10:43:08;;;;;;;2.50;0.90;;;;;;;24.19;43.39;101201.65;106984;1256;70235;-72
2023/07/18 10:45:39;;;;;;;3.30;0.80;;;;;;;24.07;43.13;101203.13;106613;1256;71513;-72
2023/07/18 10:48:17;;;;;;;4.00;1.00;;;;;;;23.95;42.08;101204.98;106706;1256;61868;-73
2023/07/18 10:50:46;;;;;;;4.50;0.90;;;;;;;24.03;42.48;101202.86;106631;1256;61357;-72
2023/07/18 10:53:14;;;;;;;3.00;0.80;;;;;;;24.14;42.06;101201.86;106832;1256;73611;-71
2023/07/18 10:55:44;;;;;;;2.70;0.70;;;;;;;24.15;41.58;101203.60;106684;1256;71631;-71
2023/07/18 10:58:19;;;;;;;2.20;0.80;;;;;;;24.06;40.58;101200.68;106847;1256;70982;-72
2023/07/18 11:00:47;;;;;;;2.30;0.80;;;;;;;24.08;41.47;101196.19;106474;1256;62842;-72
2023/07/18 11:03:27;;;;;;;3.30;0.90;;;;;;;24.14;42.32;101185.70;107037;1259;61237;-72
2023/07/18 11:05:54;;;;;;;3.70;1.00;;;;;;;24.15;42.46;101191.56;106911;1256;76147;-73
2023/07/18 11:08:29;;;;;;;3.90;1.10;;;;;;;24.18;42.80;101180.44;106871;1256;69183;-72
2023/07/18 11:11:03;;;;;;;3.40;0.90;;;;;;;24.29;42.92;101182.19;106548;1257;72615;-73
2023/07/18 11:13:37;;;;;;;3.20;0.80;;;;;;;24.40;43.37;101180.89;106595;1256;61257;-73
2023/07/18 11:16:10;;;;;;;3.70;1.00;;;;;;;24.46;42.63;101184.31;106624;1256;61746;-71